Flora, Mississippi
Current Conditions -  °F | °C
As of 3:53 PM on Tuesday 25 Nov 2014 (Local Time) from KHKS Reporting Station
Few Clouds Few Clouds  
Wind Chill: 47°   Ceiling: Unl
Heat Index: 49°   Visibility: 10mi
Dew Point: 24°   Wind: 5mph
Humidity: 38%   Direction: 330°NNW
Pressure: 30.17"   Gusts: NA
Location:  32.54°N, 90.31°W
Report Text: KHKS 252153Z 33004KT 10SM FEW110 09/M04 A3017 RMK AO2 SLP213 T00941044
Loading
Personal Weather Stations






























Interactive Weather Map New forecast layout! Learn more

10-Day Weather Forecast

Advertisements
Track Severe Weather on mobile